Time;durP1;ratioP1;P1;durP2;ratioP2;P2;SDS_P1;SDS_P2;PMS_P1;PMS_P2;Temp;Humidity;BMP_temperature;BMP_pressure;BME280_temperature;BME280_humidity;BME280_pressure;Samples;Min_cycle;Max_cycle;Signal;HPM_P1;HPM_P2
2022/03/24 00:00:18;;;;;;;24.20;15.40;;;11.80;61.00;;;;;;5060997;28;20465;-84
2022/03/24 00:02:45;;;;;;;19.92;14.27;;;11.70;60.80;;;;;;5077562;28;20107;-84
2022/03/24 00:05:12;;;;;;;27.42;16.02;;;11.70;60.70;;;;;;5077625;28;20036;-83
2022/03/24 00:07:38;;;;;;;21.58;14.00;;;11.70;60.80;;;;;;5077492;28;20021;-84
2022/03/24 00:10:04;;;;;;;20.83;14.50;;;11.60;60.70;;;;;;5077498;28;20384;-84
2022/03/24 00:12:30;;;;;;;21.30;13.93;;;11.60;60.80;;;;;;5077517;28;20473;-83
2022/03/24 00:14:56;;;;;;;19.15;13.85;;;11.60;60.90;;;;;;5060676;28;20122;-84
2022/03/24 00:34:13;;;;;;;19.38;13.02;;;11.20;61.30;;;;;;5082653;22;20083;-83
2022/03/24 00:36:39;;;;;;;19.85;13.60;;;11.20;61.00;;;;;;5056678;28;20060;-83
2022/03/24 00:39:06;;;;;;;24.00;13.68;;;11.20;61.30;;;;;;5056273;28;20066;-83
2022/03/24 00:41:32;;;;;;;19.02;14.05;;;11.10;62.00;;;;;;5072911;28;20024;-83
2022/03/24 00:43:58;;;;;;;19.38;14.30;;;11.10;61.40;;;;;;5073111;28;20028;-84
2022/03/24 00:46:23;;;;;;;21.20;14.38;;;11.00;61.30;;;;;;5056432;28;20029;-84
2022/03/24 00:48:50;;;;;;;21.25;14.82;;;11.00;61.90;;;;;;5073355;28;20043;-84
2022/03/24 00:51:16;;;;;;;23.58;14.40;;;11.00;62.60;;;;;;5074104;28;20099;-83
2022/03/24 00:53:42;;;;;;;25.67;13.93;;;10.90;62.90;;;;;;5072711;28;20056;-84
2022/03/24 00:56:08;;;;;;;21.80;13.50;;;10.90;62.60;;;;;;5072868;28;20055;-83
2022/03/24 00:58:34;;;;;;;23.20;14.07;;;10.90;62.90;;;;;;5072857;28;20020;-84
2022/03/24 01:01:01;;;;;;;23.35;14.65;;;10.80;62.50;;;;;;5072546;28;20477;-84
2022/03/24 01:03:26;;;;;;;23.35;14.77;;;10.80;63.40;;;;;;5072533;28;20066;-83
2022/03/24 01:05:52;;;;;;;18.13;13.38;;;10.80;63.20;;;;;;5072609;28;20038;-84
2022/03/24 01:08:18;;;;;;;23.92;14.65;;;10.80;63.30;;;;;;5055841;28;20402;-84
2022/03/24 01:10:44;;;;;;;21.48;14.05;;;10.70;62.80;;;;;;5055765;28;20032;-84
2022/03/24 01:13:10;;;;;;;24.38;15.00;;;10.70;62.10;;;;;;5073679;28;20420;-83
2022/03/24 01:15:36;;;;;;;21.73;14.70;;;10.60;62.70;;;;;;5072145;28;20028;-84
2022/03/24 01:18:02;;;;;;;23.98;14.38;;;10.60;63.40;;;;;;5072327;28;20021;-84
2022/03/24 01:20:30;;;;;;;21.52;14.18;;;10.50;63.80;;;;;;5072324;28;20066;-84
2022/03/24 01:22:56;;;;;;;22.15;14.85;;;10.50;63.70;;;;;;5073309;28;20386;-83
2022/03/24 01:25:26;;;;;;;23.75;14.10;;;10.50;63.30;;;;;;5073345;28;20021;-84
2022/03/24 01:27:53;;;;;;;23.77;15.07;;;10.50;64.00;;;;;;5073519;28;20031;-84
2022/03/24 01:30:19;;;;;;;22.10;13.80;;;10.40;64.00;;;;;;5072190;28;20021;-83
2022/03/24 01:32:46;;;;;;;20.77;14.18;;;10.40;63.30;;;;;;5055447;28;20055;-84
2022/03/24 01:35:12;;;;;;;21.25;14.32;;;10.30;64.10;;;;;;5072403;28;20390;-83
2022/03/24 01:37:39;;;;;;;22.63;14.23;;;10.30;64.40;;;;;;5071035;28;20024;-84
2022/03/24 01:40:09;;;;;;;20.05;13.73;;;10.20;64.30;;;;;;5072008;28;20021;-84
2022/03/24 01:42:37;;;;;;;22.55;15.02;;;10.20;64.70;;;;;;5073436;28;20024;-84
2022/03/24 01:45:04;;;;;;;21.60;14.80;;;10.20;65.20;;;;;;5071759;28;20081;-84
2022/03/24 01:47:30;;;;;;;22.70;15.43;;;10.20;65.40;;;;;;5054976;28;20032;-84
2022/03/24 01:49:58;;;;;;;20.50;13.73;;;10.10;65.90;;;;;;5071968;28;20021;-84
2022/03/24 01:52:25;;;;;;;20.20;14.15;;;10.00;65.70;;;;;;5072053;28;20386;-84
2022/03/24 01:54:59;;;;;;;21.90;14.38;;;10.00;65.60;;;;;;5071952;28;20130;-84
2022/03/24 01:57:27;;;;;;;22.95;15.75;;;10.00;66.10;;;;;;5073138;28;20174;-84
2022/03/24 01:59:53;;;;;;;22.00;15.05;;;9.90;65.90;;;;;;5071706;28;20496;-84
2022/03/24 02:02:20;;;;;;;20.02;13.48;;;9.90;66.10;;;;;;5055027;28;20032;-83
2022/03/24 02:04:47;;;;;;;26.17;14.55;;;9.90;66.00;;;;;;5055362;28;20024;-84
2022/03/24 02:07:13;;;;;;;21.35;14.38;;;9.80;66.00;;;;;;5071839;28;20029;-83
2022/03/24 02:09:39;;;;;;;23.40;15.48;;;9.70;66.00;;;;;;5055117;28;20209;-84
2022/03/24 02:12:15;;;;;;;20.15;14.50;;;9.70;66.30;;;;;;5071734;28;20056;-84
2022/03/24 02:14:42;;;;;;;25.95;16.92;;;9.70;66.50;;;;;;5072051;28;20392;-84
2022/03/24 02:17:08;;;;;;;24.08;14.65;;;9.70;66.90;;;;;;5072871;28;20028;-84
2022/03/24 02:19:36;;;;;;;24.20;14.68;;;9.60;66.90;;;;;;5071625;28;20039;-84
2022/03/24 02:22:13;;;;;;;23.48;14.68;;;9.50;66.90;;;;;;5072994;28;20032;-84
2022/03/24 02:24:39;;;;;;;19.10;14.18;;;9.50;66.90;;;;;;5072765;28;20111;-84
2022/03/24 02:27:05;;;;;;;24.48;14.73;;;9.50;67.20;;;;;;5071812;28;20095;-84
2022/03/24 02:29:31;;;;;;;24.58;15.27;;;9.40;67.20;;;;;;5055068;28;20031;-84
2022/03/24 02:31:57;;;;;;;23.30;15.35;;;9.40;67.50;;;;;;5071397;28;20021;-84
2022/03/24 02:34:47;;;;;;;23.73;15.02;;;9.40;67.50;;;;;;5054656;28;20054;-85
2022/03/24 02:37:15;;;;;;;22.77;16.13;;;9.30;67.80;;;;;;5071536;28;20060;-84
2022/03/24 02:39:44;;;;;;;27.45;14.95;;;9.30;68.40;;;;;;5071567;28;20020;-84
2022/03/24 02:42:15;;;;;;;27.77;16.52;;;9.20;67.90;;;;;;5071397;28;20040;-84
2022/03/24 02:44:46;;;;;;;26.33;16.63;;;9.20;68.00;;;;;;5071393;28;20028;-84
2022/03/24 02:47:13;;;;;;;24.08;15.15;;;9.20;68.10;;;;;;5072029;28;20025;-84
2022/03/24 02:49:40;;;;;;;21.25;15.20;;;9.10;68.00;;;;;;5074565;28;20021;-84
2022/03/24 02:52:07;;;;;;;26.83;15.95;;;9.00;68.50;;;;;;5058677;28;20063;-84
2022/03/24 02:54:33;;;;;;;24.05;15.65;;;9.00;68.20;;;;;;5075297;28;20132;-84
2022/03/24 02:57:00;;;;;;;22.33;15.38;;;9.00;68.40;;;;;;5076379;28;20025;-84
2022/03/24 02:59:27;;;;;;;23.88;15.07;;;8.90;68.80;;;;;;5075204;28;20033;-84
2022/03/24 03:01:57;;;;;;;21.85;13.75;;;8.90;69.00;;;;;;5058746;28;20099;-84
2022/03/24 03:04:23;;;;;;;22.10;14.35;;;8.80;69.20;;;;;;5074948;28;20104;-84
2022/03/24 03:06:49;;;;;;;21.73;13.90;;;8.80;69.50;;;;;;5074967;28;20109;-84
2022/03/24 03:09:16;;;;;;;26.77;15.25;;;8.80;69.80;;;;;;5075102;28;20489;-84
2022/03/24 03:15:05;;;;;;;23.33;15.13;;;8.70;70.50;;;;;;5075172;28;20073;-84
2022/03/24 03:17:31;;;;;;;22.48;14.55;;;8.70;70.50;;;;;;5074760;28;20020;-84
2022/03/24 03:19:56;;;;;;;22.20;14.07;;;8.60;70.60;;;;;;5057971;28;20074;-84
2022/03/24 03:22:22;;;;;;;22.85;14.10;;;8.60;70.60;;;;;;5076183;28;20103;-84
2022/03/24 03:24:48;;;;;;;24.83;13.43;;;8.60;70.80;;;;;;5057632;28;20033;-84
2022/03/24 03:27:14;;;;;;;20.52;14.00;;;8.50;70.80;;;;;;5059397;28;20022;-84
2022/03/24 03:29:41;;;;;;;25.98;15.25;;;8.50;71.20;;;;;;5054500;28;20029;-84
2022/03/24 03:32:09;;;;;;;22.30;14.68;;;8.50;71.20;;;;;;5071305;28;20040;-84
2022/03/24 03:34:35;;;;;;;21.52;13.93;;;8.40;71.60;;;;;;5054111;28;20453;-85
2022/03/24 03:37:00;;;;;;;19.90;13.38;;;8.40;71.60;;;;;;5071335;28;20017;-84
2022/03/24 03:39:27;;;;;;;23.90;15.18;;;8.40;71.90;;;;;;5070886;28;20143;-84
2022/03/24 03:41:54;;;;;;;23.02;14.68;;;8.30;72.20;;;;;;5054170;28;20039;-84
2022/03/24 03:44:20;;;;;;;25.25;15.20;;;8.30;72.40;;;;;;5055599;28;20104;-84
2022/03/24 03:46:53;;;;;;;23.48;14.73;;;8.30;72.50;;;;;;5070898;28;20104;-84
2022/03/24 03:49:21;;;;;;;23.23;15.13;;;8.20;72.60;;;;;;5070748;28;20025;-85
2022/03/24 03:51:48;;;;;;;25.92;15.18;;;8.20;72.60;;;;;;5070676;28;20470;-84
2022/03/24 03:54:14;;;;;;;24.05;14.80;;;8.10;72.80;;;;;;5070502;28;20086;-84
2022/03/24 03:56:40;;;;;;;22.10;15.45;;;8.10;73.10;;;;;;5053926;28;20025;-84
2022/03/24 03:59:06;;;;;;;26.75;16.08;;;8.00;73.40;;;;;;5070413;28;20029;-84
2022/03/24 04:01:32;;;;;;;28.40;15.10;;;8.00;73.20;;;;;;5069674;28;20033;-83
2022/03/24 04:03:58;;;;;;;26.60;14.90;;;8.00;73.50;;;;;;5054782;28;20135;-85
2022/03/24 04:06:24;;;;;;;22.83;15.15;;;7.90;73.80;;;;;;5070425;28;20474;-84
2022/03/24 04:08:50;;;;;;;24.98;14.82;;;7.90;74.00;;;;;;5070565;28;20025;-84
2022/03/24 04:11:16;;;;;;;27.50;15.50;;;7.90;73.80;;;;;;5070439;28;20025;-84
2022/03/24 04:13:43;;;;;;;27.75;15.98;;;7.80;73.90;;;;;;5054060;28;20036;-84
2022/03/24 04:16:13;;;;;;;22.40;14.13;;;7.80;74.00;;;;;;5070538;28;20036;-84
2022/03/24 04:18:43;;;;;;;26.93;14.00;;;7.80;74.20;;;;;;5065491;28;20025;-84
2022/03/24 04:21:09;;;;;;;23.38;14.18;;;7.70;74.80;;;;;;5073784;28;20605;-83
2022/03/24 04:23:40;;;;;;;20.88;13.63;;;7.70;75.20;;;;;;5073515;28;20493;-84
2022/03/24 04:26:06;;;;;;;20.23;12.68;;;7.70;76.10;;;;;;5073250;28;20032;-84
2022/03/24 04:28:33;;;;;;;19.58;12.52;;;7.60;77.10;;;;;;5073383;28;20111;-84
2022/03/24 04:30:59;;;;;;;25.00;14.50;;;7.60;77.20;;;;;;5074735;28;20042;-84
2022/03/24 04:33:24;;;;;;;27.38;13.35;;;7.60;77.60;;;;;;5073242;28;20040;-84
2022/03/24 04:35:51;;;;;;;38.90;15.07;;;7.50;77.90;;;;;;5073141;28;20121;-84
2022/03/24 04:38:17;;;;;;;23.48;12.77;;;7.40;78.00;;;;;;5074700;28;20543;-84
2022/03/24 04:40:43;;;;;;;19.83;12.52;;;7.40;77.70;;;;;;5073452;28;20033;-84
2022/03/24 04:43:09;;;;;;;20.83;13.23;;;7.40;77.80;;;;;;5073201;28;20084;-84
2022/03/24 04:45:35;;;;;;;20.75;13.07;;;7.40;77.90;;;;;;5056438;28;20033;-84
2022/03/24 04:48:01;;;;;;;21.77;14.05;;;7.40;77.70;;;;;;5073055;28;20116;-84
2022/03/24 04:50:27;;;;;;;25.15;14.45;;;7.30;77.80;;;;;;5056342;28;20047;-84
2022/03/24 04:52:53;;;;;;;25.30;14.70;;;7.30;77.90;;;;;;5073098;28;20073;-84
2022/03/24 04:55:19;;;;;;;27.25;15.13;;;7.20;77.60;;;;;;5072848;28;20058;-84
2022/03/24 04:57:45;;;;;;;22.50;15.15;;;7.20;77.80;;;;;;5056211;28;20036;-84
2022/03/24 05:00:26;;;;;;;24.35;14.70;;;7.20;78.10;;;;;;5071823;28;20055;-85
2022/03/24 05:02:52;;;;;;;;;;;7.20;78.30;;;;;;5052750;28;20506;-84
2022/03/24 05:05:18;;;;;;;20.77;13.50;;;7.10;79.00;;;;;;5052527;28;19938;-85
2022/03/24 05:07:43;;;;;;;26.65;14.25;;;7.10;78.60;;;;;;5052541;28;20032;-84
2022/03/24 05:10:10;;;;;;;26.92;15.55;;;7.10;79.10;;;;;;5069486;28;20327;-84
2022/03/24 05:12:38;;;;;;;26.58;14.98;;;7.10;79.20;;;;;;5054457;28;20444;-84
2022/03/24 05:15:04;;;;;;;23.83;15.23;;;7.10;79.20;;;;;;5053133;28;20028;-85
2022/03/24 05:17:33;;;;;;;26.38;15.98;;;7.00;79.30;;;;;;5069823;28;20032;-84
2022/03/24 05:19:59;;;;;;;22.15;14.48;;;7.00;79.50;;;;;;5052731;28;20086;-85
2022/03/24 05:22:24;;;;;;;25.45;15.15;;;7.10;79.60;;;;;;5069225;28;20368;-84
2022/03/24 05:24:50;;;;;;;24.58;16.63;;;7.00;79.50;;;;;;5069124;28;20048;-84
2022/03/24 05:27:16;;;;;;;24.33;15.95;;;7.00;79.30;;;;;;5069306;28;20028;-85
2022/03/24 05:29:41;;;;;;;24.83;15.27;;;7.00;79.40;;;;;;5052179;28;20111;-85
2022/03/24 05:32:08;;;;;;;27.23;16.00;;;7.00;79.60;;;;;;5052174;28;20037;-85
2022/03/24 05:34:33;;;;;;;26.10;15.23;;;7.00;79.60;;;;;;5053334;28;20056;-84
2022/03/24 05:36:59;;;;;;;25.38;15.07;;;7.00;79.70;;;;;;5080724;28;20036;-84
2022/03/24 05:39:25;;;;;;;28.25;15.05;;;6.90;79.80;;;;;;5053352;28;20071;-84
2022/03/24 05:41:51;;;;;;;23.90;15.35;;;6.90;79.70;;;;;;5035447;28;20021;-84
2022/03/24 05:44:17;;;;;;;31.75;17.70;;;6.90;79.60;;;;;;5035489;28;20029;-84
2022/03/24 05:46:44;;;;;;;23.52;15.15;;;6.90;79.90;;;;;;5035536;28;20025;-84
2022/03/24 05:49:15;;;;;;;26.75;16.02;;;6.90;79.90;;;;;;5053421;28;20082;-84
2022/03/24 05:51:42;;;;;;;27.60;16.10;;;6.80;80.00;;;;;;5053115;28;20013;-84
2022/03/24 05:54:09;;;;;;;21.52;14.63;;;6.80;80.10;;;;;;5051882;28;20025;-84
2022/03/24 05:56:35;;;;;;;25.05;15.02;;;6.80;80.30;;;;;;5051706;28;20025;-84
2022/03/24 05:59:01;;;;;;;27.05;16.42;;;6.80;80.40;;;;;;5051732;28;20094;-84
2022/03/24 06:01:26;;;;;;;27.42;15.90;;;6.80;80.50;;;;;;5035240;28;20052;-84
2022/03/24 06:03:52;;;;;;;34.47;16.77;;;6.80;80.70;;;;;;5070117;28;20121;-84
2022/03/24 06:06:20;;;;;;;26.63;15.05;;;6.80;80.90;;;;;;5068827;28;20098;-84
2022/03/24 06:08:52;;;;;;;27.67;15.48;;;6.80;81.00;;;;;;5072337;28;20051;-84
2022/03/24 06:11:19;;;;;;;24.92;14.48;;;6.80;81.20;;;;;;5072568;28;20047;-84
2022/03/24 06:13:53;;;;;;;26.58;14.93;;;6.70;81.40;;;;;;5074639;28;20017;-82
2022/03/24 06:16:19;;;;;;;26.30;15.30;;;6.70;81.60;;;;;;5072499;28;20029;-83
2022/03/24 06:18:45;;;;;;;24.67;13.80;;;6.70;81.90;;;;;;5054355;28;20029;-83
2022/03/24 06:21:10;;;;;;;23.35;15.05;;;6.70;82.20;;;;;;5048673;28;20419;-84
2022/03/24 06:23:36;;;;;;;27.13;15.27;;;6.70;82.50;;;;;;5066004;28;20035;-83
2022/03/24 06:26:03;;;;;;;27.55;15.68;;;6.70;83.00;;;;;;5075343;28;20512;-84
2022/03/24 06:28:28;;;;;;;29.35;16.13;;;6.70;83.50;;;;;;5075206;28;20501;-84
2022/03/24 06:30:55;;;;;;;24.75;15.30;;;6.80;83.50;;;;;;5074906;28;20017;-84
2022/03/24 06:33:21;;;;;;;27.42;16.02;;;6.80;83.60;;;;;;5073724;28;20041;-84
2022/03/24 06:35:48;;;;;;;25.80;14.90;;;6.80;83.70;;;;;;5058388;28;20009;-84
2022/03/24 06:38:16;;;;;;;25.92;16.05;;;6.80;84.00;;;;;;5074886;28;20036;-84
2022/03/24 06:40:42;;;;;;;24.95;15.73;;;6.80;84.30;;;;;;5075059;28;20059;-84
2022/03/24 06:43:09;;;;;;;24.30;16.33;;;6.90;84.60;;;;;;5056892;28;20032;-84
2022/03/24 06:45:36;;;;;;;27.73;16.27;;;6.90;84.80;;;;;;5056927;28;20021;-84
2022/03/24 06:48:04;;;;;;;26.92;17.15;;;7.00;85.60;;;;;;5074767;28;20363;-84
2022/03/24 06:50:29;;;;;;;26.65;15.32;;;7.00;85.70;;;;;;5056648;28;20032;-84
2022/03/24 06:52:55;;;;;;;26.73;16.70;;;7.00;86.60;;;;;;5073563;28;20025;-84
2022/03/24 06:55:21;;;;;;;24.33;16.08;;;7.00;87.10;;;;;;5057070;28;20461;-84
2022/03/24 06:57:47;;;;;;;29.40;16.63;;;7.10;86.90;;;;;;5058149;28;20206;-84
2022/03/24 07:00:14;;;;;;;25.05;15.45;;;7.10;87.00;;;;;;5075106;28;20039;-84
2022/03/24 07:02:45;;;;;;;29.40;15.88;;;7.10;87.20;;;;;;5058627;28;20032;-84
2022/03/24 07:05:11;;;;;;;27.58;16.67;;;7.20;87.50;;;;;;5058422;28;20025;-84
2022/03/24 07:07:38;;;;;;;26.35;16.70;;;7.20;87.60;;;;;;5075526;28;20017;-84
2022/03/24 07:10:05;;;;;;;28.33;17.27;;;7.30;88.50;;;;;;5059134;28;20028;-84
2022/03/24 07:12:30;;;;;;;30.15;17.02;;;7.30;87.90;;;;;;5077867;28;20027;-84
2022/03/24 07:14:56;;;;;;;27.42;17.00;;;7.40;87.90;;;;;;5059519;28;20017;-84
2022/03/24 07:17:22;;;;;;;23.85;16.45;;;7.50;88.00;;;;;;5052052;23;20048;-84
2022/03/24 07:19:48;;;;;;;27.05;18.00;;;7.50;88.00;;;;;;5024295;28;20029;-84
2022/03/24 07:22:14;;;;;;;26.75;17.20;;;7.50;88.00;;;;;;5040715;28;20119;-84
2022/03/24 07:24:40;;;;;;;24.80;15.80;;;7.60;88.00;;;;;;5057336;28;20020;-84
2022/03/24 07:27:06;;;;;;;27.38;16.88;;;7.70;88.10;;;;;;5075330;28;20032;-84
2022/03/24 07:29:32;;;;;;;25.85;17.25;;;7.70;88.10;;;;;;5040779;28;20412;-83
2022/03/24 07:32:02;;;;;;;26.40;16.42;;;7.80;88.00;;;;;;5057402;28;20047;-84
2022/03/24 07:34:29;;;;;;;29.67;17.60;;;7.90;87.90;;;;;;5041107;28;20128;-84
2022/03/24 07:36:55;;;;;;;25.52;16.40;;;8.00;88.00;;;;;;5040906;28;20469;-84
2022/03/24 07:39:20;;;;;;;28.48;17.02;;;8.10;88.30;;;;;;5024703;28;20115;-84
2022/03/24 07:41:46;;;;;;;30.05;17.02;;;8.20;88.50;;;;;;5041185;28;20119;-84
2022/03/24 07:44:12;;;;;;;29.45;17.55;;;8.20;89.30;;;;;;5057474;28;20029;-84
2022/03/24 07:46:38;;;;;;;28.13;17.92;;;8.30;88.90;;;;;;5057488;28;20128;-84
2022/03/24 07:49:04;;;;;;;26.02;17.38;;;8.40;89.30;;;;;;5057394;28;20031;-84
2022/03/24 07:51:34;;;;;;;32.08;18.98;;;8.50;89.40;;;;;;5057095;28;20028;-84
2022/03/24 07:54:03;;;;;;;27.33;17.95;;;8.60;89.50;;;;;;5073038;28;20028;-84
2022/03/24 07:56:30;;;;;;;27.42;17.27;;;8.70;89.40;;;;;;5073458;28;20025;-84
2022/03/24 07:58:57;;;;;;;24.58;17.02;;;8.70;89.50;;;;;;5040792;28;20033;-84
2022/03/24 08:01:30;;;;;;;27.50;18.83;;;8.80;89.80;;;;;;5057130;28;20020;-84
2022/03/24 08:03:58;;;;;;;30.75;18.65;;;8.90;90.30;;;;;;5057203;28;20020;-84
2022/03/24 08:06:25;;;;;;;28.80;18.35;;;9.00;90.00;;;;;;5056784;28;20024;-84
2022/03/24 08:08:51;;;;;;;33.45;20.25;;;9.20;90.10;;;;;;5057041;28;20036;-83
2022/03/24 08:11:17;;;;;;;28.55;18.13;;;9.30;90.10;;;;;;5040364;28;20107;-84
2022/03/24 08:13:43;;;;;;;27.58;18.88;;;9.40;90.10;;;;;;5057196;28;20104;-84
2022/03/24 08:16:08;;;;;;;32.00;19.67;;;9.50;90.10;;;;;;5072882;28;20106;-84
2022/03/24 08:18:34;;;;;;;28.33;18.83;;;9.60;90.00;;;;;;5055915;28;20028;-84
2022/03/24 08:21:00;;;;;;;32.80;20.17;;;9.70;89.70;;;;;;5070077;28;20028;-84
2022/03/24 08:23:26;;;;;;;31.27;18.38;;;9.80;89.90;;;;;;5056886;28;20496;-84
2022/03/24 08:25:53;;;;;;;29.70;19.50;;;9.90;89.80;;;;;;5056771;28;20031;-84
2022/03/24 08:28:18;;;;;;;28.17;19.08;;;10.00;89.60;;;;;;5056933;28;20547;-84
2022/03/24 08:30:45;;;;;;;28.33;18.88;;;10.10;89.40;;;;;;5056711;28;20025;-84
2022/03/24 08:33:11;;;;;;;30.88;19.95;;;10.20;89.10;;;;;;5056688;28;20017;-83
2022/03/24 08:35:38;;;;;;;31.90;19.58;;;10.40;88.70;;;;;;5056413;28;20051;-84
2022/03/24 08:38:04;;;;;;;33.97;21.48;;;10.50;87.60;;;;;;5056567;28;20028;-84
2022/03/24 08:40:29;;;;;;;31.63;21.95;;;10.60;86.80;;;;;;5056340;28;20032;-84
2022/03/24 08:42:58;;;;;;;34.05;20.48;;;10.70;86.10;;;;;;5068917;28;20028;-84
2022/03/24 08:45:29;;;;;;;37.97;22.73;;;10.80;86.30;;;;;;5054738;28;20111;-84
2022/03/24 08:47:55;;;;;;;32.75;22.83;;;10.90;85.80;;;;;;5017877;28;20041;-84
2022/03/24 08:50:21;;;;;;;33.13;22.20;;;11.00;85.70;;;;;;5019822;28;20025;-84
2022/03/24 08:52:48;;;;;;;28.20;20.15;;;11.10;85.60;;;;;;5019914;28;20035;-84
2022/03/24 08:55:14;;;;;;;36.65;20.73;;;11.20;85.00;;;;;;5054430;28;20021;-84
2022/03/24 08:57:41;;;;;;;29.60;19.85;;;11.40;83.90;;;;;;5054392;28;20522;-84
2022/03/24 09:00:13;;;;;;;35.65;21.20;;;11.50;82.90;;;;;;5052887;28;20102;-84
2022/03/24 09:02:40;;;;;;;30.23;21.20;;;11.60;81.60;;;;;;5036293;28;20075;-84
2022/03/24 09:05:06;;;;;;;29.13;20.35;;;11.80;80.90;;;;;;5036618;28;20032;-84
2022/03/24 09:07:32;;;;;;;29.58;21.02;;;11.90;80.40;;;;;;5003311;28;20024;-84
2022/03/24 09:09:57;;;;;;;29.13;20.08;;;12.10;81.10;;;;;;5019771;28;20386;-83
2022/03/24 09:12:24;;;;;;;28.83;19.13;;;12.20;80.80;;;;;;5020003;28;20033;-84
2022/03/24 09:14:50;;;;;;;25.13;18.73;;;12.40;80.40;;;;;;5003655;28;20029;-84
2022/03/24 09:17:16;;;;;;;25.67;18.15;;;12.50;79.40;;;;;;5053927;28;20055;-84
2022/03/24 09:19:42;;;;;;;24.10;17.77;;;12.60;78.40;;;;;;5053864;28;20033;-84
2022/03/24 09:22:08;;;;;;;23.02;17.65;;;12.70;76.60;;;;;;5036355;28;20032;-83
2022/03/24 09:24:34;;;;;;;23.30;16.35;;;12.80;76.40;;;;;;5019492;28;20060;-84
2022/03/24 09:27:00;;;;;;;23.45;17.88;;;12.90;74.80;;;;;;5036081;28;20029;-84
2022/03/24 09:29:26;;;;;;;23.85;17.40;;;13.10;73.60;;;;;;5019349;28;20359;-84
2022/03/24 09:31:52;;;;;;;23.25;17.00;;;13.20;73.30;;;;;;5035868;28;20025;-84
2022/03/24 09:34:18;;;;;;;25.83;18.20;;;13.30;72.00;;;;;;5018624;28;20364;-83
2022/03/24 09:36:44;;;;;;;24.85;17.58;;;13.40;72.20;;;;;;5002957;28;20474;-83
2022/03/24 09:39:10;;;;;;;23.77;17.60;;;13.60;72.20;;;;;;5035756;28;20093;-83
2022/03/24 09:41:37;;;;;;;23.45;18.58;;;13.70;71.40;;;;;;5019096;28;20028;-84
2022/03/24 09:44:06;;;;;;;24.23;17.58;;;13.90;70.80;;;;;;5035409;28;20520;-84
2022/03/24 09:46:32;;;;;;;21.70;16.80;;;14.00;70.40;;;;;;5035857;28;20017;-84
2022/03/24 09:48:59;;;;;;;23.73;17.83;;;14.20;71.50;;;;;;5018921;28;20387;-84
2022/03/24 09:51:26;;;;;;;23.95;18.25;;;14.30;70.20;;;;;;5051702;28;20025;-84
2022/03/24 09:53:52;;;;;;;25.23;18.80;;;14.40;70.10;;;;;;5035021;28;20029;-84
2022/03/24 09:56:18;;;;;;;25.02;17.17;;;14.60;69.20;;;;;;5002546;28;20526;-84
2022/03/24 09:58:44;;;;;;;23.00;17.98;;;14.70;68.90;;;;;;5052392;28;20025;-84
2022/03/24 10:01:13;;;;;;;22.08;17.48;;;14.90;67.00;;;;;;5053353;28;20032;-84
2022/03/24 10:03:39;;;;;;;26.17;17.52;;;15.00;66.40;;;;;;5035353;28;20021;-84
2022/03/24 10:06:07;;;;;;;22.73;16.90;;;15.10;64.10;;;;;;5051898;28;20017;-84
2022/03/24 10:08:35;;;;;;;27.42;18.88;;;15.30;64.90;;;;;;5035334;28;20029;-84
2022/03/24 10:11:08;;;;;;;22.75;17.63;;;15.40;63.50;;;;;;5051919;28;20074;-83
2022/03/24 10:13:45;;;;;;;25.98;17.83;;;15.60;61.70;;;;;;5053189;28;20033;-84
2022/03/24 10:16:12;;;;;;;24.75;18.20;;;15.70;62.00;;;;;;5031542;28;20044;-84
2022/03/24 10:18:57;;;;;;;25.27;18.63;;;15.90;62.70;;;;;;5015839;28;20033;-84
2022/03/24 10:21:23;;;;;;;24.40;18.58;;;16.00;61.90;;;;;;5031965;28;20029;-83
2022/03/24 10:23:49;;;;;;;29.15;20.75;;;16.20;62.20;;;;;;5031812;28;20455;-84
2022/03/24 10:26:14;;;;;;;24.30;17.83;;;16.30;59.70;;;;;;5048504;28;20030;-84
2022/03/24 10:28:58;;;;;;;33.78;20.73;;;16.40;59.10;;;;;;5015609;28;20033;-84
2022/03/24 10:31:35;;;;;;;26.05;17.67;;;16.50;57.70;;;;;;5031884;28;20025;-84
2022/03/24 10:34:00;;;;;;;31.27;19.30;;;16.60;58.30;;;;;;5031833;28;20022;-84
2022/03/24 10:36:27;;;;;;;25.50;18.92;;;16.80;57.60;;;;;;5015389;28;20030;-84
2022/03/24 10:39:00;;;;;;;27.52;19.05;;;16.90;58.10;;;;;;5015420;28;20111;-84
2022/03/24 10:41:28;;;;;;;25.85;18.83;;;17.00;58.00;;;;;;5033054;28;20364;-84
2022/03/24 10:44:18;;;;;;;27.67;17.98;;;17.10;57.90;;;;;;5015211;28;20123;-85
2022/03/24 10:46:44;;;;;;;27.20;16.58;;;17.30;56.00;;;;;;5031365;28;20041;-85
2022/03/24 10:49:25;;;;;;;25.08;16.92;;;17.40;53.30;;;;;;5031880;28;20026;-85
2022/03/24 10:51:53;;;;;;;21.88;16.27;;;17.50;52.60;;;;;;5031906;28;20029;-84
2022/03/24 10:54:27;;;;;;;30.15;17.85;;;17.70;53.80;;;;;;5031687;28;20029;-84
2022/03/24 10:57:00;;;;;;;22.33;16.20;;;17.80;54.10;;;;;;5031640;28;20028;-84
2022/03/24 10:59:28;;;;;;;29.30;17.58;;;17.90;54.20;;;;;;5031562;28;20030;-84
2022/03/24 11:01:54;;;;;;;22.77;15.63;;;18.10;53.80;;;;;;5048169;28;20036;-85
2022/03/24 11:04:20;;;;;;;25.65;17.13;;;18.20;54.00;;;;;;5032810;28;20033;-85
2022/03/24 11:06:53;;;;;;;26.08;18.23;;;18.30;53.90;;;;;;5015093;28;20025;-84
2022/03/24 11:09:30;;;;;;;25.33;17.02;;;18.40;53.20;;;;;;5033796;28;20017;-84
2022/03/24 11:12:26;;;;;;;26.92;16.77;;;18.60;52.00;;;;;;5051730;28;20416;-85
2022/03/24 11:14:54;;;;;;;23.10;16.60;;;18.70;51.30;;;;;;5035302;28;20047;-84
2022/03/24 11:17:25;;;;;;;27.55;16.77;;;18.80;51.70;;;;;;5031610;28;20388;-84
2022/03/24 11:20:04;;;;;;;25.67;16.10;;;18.90;51.60;;;;;;5015472;28;20113;-85
2022/03/24 11:22:42;;;;;;;24.35;15.43;;;19.00;51.50;;;;;;5048455;28;20040;-84
2022/03/24 11:25:09;;;;;;;20.98;15.02;;;19.10;51.60;;;;;;5015240;28;20108;-85
2022/03/24 11:27:36;;;;;;;25.58;16.45;;;19.20;51.70;;;;;;5017839;28;20060;-84
2022/03/24 11:30:04;;;;;;;26.95;17.13;;;19.30;51.50;;;;;;5015119;28;20077;-84
2022/03/24 11:32:31;;;;;;;25.17;15.18;;;19.50;51.00;;;;;;5016339;28;20080;-84
2022/03/24 11:34:58;;;;;;;23.35;16.05;;;19.60;50.20;;;;;;5016231;28;20471;-84
2022/03/24 11:37:24;;;;;;;20.95;14.43;;;19.70;49.50;;;;;;5014840;28;20026;-84
2022/03/24 11:40:13;;;;;;;23.20;15.02;;;19.80;50.20;;;;;;5014983;28;20037;-83
2022/03/24 11:42:54;;;;;;;26.30;16.40;;;19.90;49.60;;;;;;5008187;28;20034;-85
2022/03/24 11:45:38;;;;;;;24.38;15.73;;;20.10;49.00;;;;;;5048018;28;20072;-84
2022/03/24 11:48:37;;;;;;;26.60;16.95;;;20.10;48.90;;;;;;5014780;28;20391;-84
2022/03/24 11:51:14;;;;;;;24.35;17.83;;;20.20;47.30;;;;;;5031544;28;20042;-85
2022/03/24 11:53:40;;;;;;;22.35;16.85;;;20.30;47.10;;;;;;5014684;28;20068;-84
2022/03/24 11:56:06;;;;;;;20.67;16.55;;;20.40;47.10;;;;;;5014576;28;20029;-84
2022/03/24 11:58:35;;;;;;;26.55;17.35;;;20.50;47.00;;;;;;5014359;28;20033;-84
2022/03/24 12:01:21;;;;;;;23.65;17.40;;;20.60;45.80;;;;;;5015877;28;20388;-85
2022/03/24 12:04:03;;;;;;;27.52;16.88;;;20.70;44.20;;;;;;5033884;28;20033;-85
2022/03/24 12:06:43;;;;;;;21.92;16.48;;;20.70;44.40;;;;;;5015842;28;20033;-85
2022/03/24 12:09:14;;;;;;;23.55;18.52;;;20.80;45.60;;;;;;5015765;28;20014;-84
2022/03/24 12:11:45;;;;;;;;;;;20.90;45.60;;;;;;5014907;28;20092;-84
2022/03/24 12:14:31;;;;;;;23.17;17.27;;;20.90;45.00;;;;;;5015500;28;19912;-84
2022/03/24 12:16:57;;;;;;;25.88;17.48;;;21.00;44.90;;;;;;5036158;28;20060;-85
2022/03/24 12:19:49;;;;;;;25.80;17.80;;;21.00;45.60;;;;;;5035081;28;20328;-85
2022/03/24 12:22:31;;;;;;;28.23;20.48;;;21.20;45.00;;;;;;5052853;28;20025;-84
2022/03/24 12:24:59;;;;;;;28.27;19.02;;;21.20;43.70;;;;;;5053593;28;20039;-85
2022/03/24 12:27:31;;;;;;;28.73;18.27;;;21.30;44.60;;;;;;5053487;28;20517;-84
2022/03/24 12:30:13;;;;;;;28.52;18.67;;;21.40;43.80;;;;;;5053191;28;20048;-84
2022/03/24 12:32:40;;;;;;;26.27;20.48;;;21.50;44.60;;;;;;5053631;28;20017;-85
2022/03/24 12:35:07;;;;;;;27.58;19.70;;;21.50;43.40;;;;;;5036977;28;20033;-84
2022/03/24 12:37:33;;;;;;;30.42;20.63;;;21.60;43.90;;;;;;5053646;28;20021;-84
2022/03/24 12:40:22;;;;;;;27.20;19.35;;;21.60;42.80;;;;;;5054946;28;20436;-84
2022/03/24 12:42:53;;;;;;;31.77;21.23;;;21.70;42.70;;;;;;5053381;28;20446;-84
2022/03/24 12:45:27;;;;;;;24.48;19.02;;;21.70;42.60;;;;;;5053537;28;20037;-84
2022/03/24 12:48:07;;;;;;;27.23;19.55;;;21.80;42.20;;;;;;5054663;28;20374;-85
2022/03/24 12:50:42;;;;;;;28.48;19.77;;;21.80;42.10;;;;;;5053361;28;20057;-85
2022/03/24 12:53:09;;;;;;;32.58;20.25;;;21.80;41.10;;;;;;5053209;28;20030;-84
2022/03/24 12:55:40;;;;;;;31.38;20.05;;;21.90;41.60;;;;;;5052929;28;20035;-84
2022/03/24 12:58:17;;;;;;;23.83;17.65;;;21.90;42.10;;;;;;5054436;28;20103;-84